createdAt,value
2018-12-13T00:03:24.322Z,-0.50
2018-12-13T00:08:31.508Z,-0.60
2018-12-13T00:13:37.133Z,-0.70
2018-12-13T00:18:42.573Z,-0.70
2018-12-13T00:23:47.968Z,-0.50
2018-12-13T00:28:53.342Z,-0.40
2018-12-13T00:33:58.593Z,-0.40
2018-12-13T00:39:05.756Z,-0.40
2018-12-13T00:44:11.137Z,-0.40
2018-12-13T00:49:16.474Z,-0.40
2018-12-13T00:54:22.702Z,-0.50
2018-12-13T00:59:28.327Z,-0.50
2018-12-13T01:04:33.639Z,-0.40
2018-12-13T01:09:39.365Z,-0.40
2018-12-13T01:14:44.674Z,-0.40
2018-12-13T01:19:49.990Z,-0.40
2018-12-13T01:24:55.246Z,-0.40
2018-12-13T01:30:00.760Z,-0.50
2018-12-13T01:35:07.017Z,-0.50
2018-12-13T01:40:12.486Z,-0.40
2018-12-13T01:45:17.977Z,-0.40
2018-12-13T01:50:23.430Z,-0.50
2018-12-13T01:55:28.763Z,-0.50
2018-12-13T02:00:34.181Z,-0.60
2018-12-13T02:05:39.950Z,-0.60
2018-12-13T02:10:45.406Z,-0.60
2018-12-13T02:15:50.691Z,-0.60
2018-12-13T02:20:56.137Z,-0.60
2018-12-13T02:26:01.535Z,-0.60
2018-12-13T02:31:07.090Z,-0.60
2018-12-13T02:36:12.486Z,-0.60
2018-12-13T02:41:17.861Z,-0.60
2018-12-13T02:46:23.861Z,-0.60
2018-12-13T02:51:29.192Z,-0.60
2018-12-13T02:56:35.375Z,-0.60
2018-12-13T03:01:40.650Z,-0.60
2018-12-13T03:06:46.931Z,-0.60
2018-12-13T03:11:52.260Z,-0.70
2018-12-13T03:16:57.526Z,-0.70
2018-12-13T03:22:03.123Z,-0.60
2018-12-13T03:27:08.775Z,-0.60
2018-12-13T03:32:14.565Z,-0.70
2018-12-13T03:37:20.803Z,-0.70
2018-12-13T03:42:26.854Z,-0.70
2018-12-13T03:47:32.200Z,-0.80
2018-12-13T03:52:37.500Z,-0.80
2018-12-13T03:57:42.879Z,-0.80
2018-12-13T04:02:48.160Z,-0.70
2018-12-13T04:07:53.867Z,-0.70
2018-12-13T04:13:00.206Z,-0.70
2018-12-13T04:18:05.692Z,-0.80
2018-12-13T04:23:12.966Z,-0.80
2018-12-13T04:28:18.304Z,-0.80
2018-12-13T04:33:24.177Z,-0.80
2018-12-13T04:38:29.399Z,-0.90
2018-12-13T04:43:34.694Z,-0.90
2018-12-13T04:48:40.139Z,-0.90
2018-12-13T04:53:45.453Z,-0.90
2018-12-13T04:58:50.956Z,-1.00
2018-12-13T05:03:56.317Z,-1.00
2018-12-13T05:09:01.789Z,-1.00
2018-12-13T05:14:07.156Z,-1.00
2018-12-13T05:19:12.493Z,-1.00
2018-12-13T05:24:18.104Z,-1.10
2018-12-13T05:29:23.681Z,-1.10
2018-12-13T05:34:28.991Z,-1.10
2018-12-13T05:39:34.309Z,-1.00
2018-12-13T05:44:39.791Z,-1.10
2018-12-13T05:49:45.256Z,-1.10
2018-12-13T05:54:50.611Z,-1.10
2018-12-13T05:59:56.129Z,-1.10
2018-12-13T06:05:01.615Z,-1.10
2018-12-13T06:10:08.135Z,-1.20
2018-12-13T06:15:13.523Z,-1.20
2018-12-13T06:20:19.168Z,-1.20
2018-12-13T06:25:24.336Z,-1.20
2018-12-13T06:30:29.805Z,-1.20
2018-12-13T06:35:35.091Z,-1.30
2018-12-13T06:40:40.489Z,-1.30
2018-12-13T06:45:46.032Z,-1.20
2018-12-13T06:50:51.397Z,-1.20
2018-12-13T06:55:57.075Z,-1.20
2018-12-13T07:01:02.416Z,-1.20
2018-12-13T07:06:07.679Z,-1.30
2018-12-13T07:11:13.043Z,-1.30
2018-12-13T07:16:18.386Z,-1.30
2018-12-13T07:21:23.765Z,-1.30
2018-12-13T07:26:29.203Z,-1.40
2018-12-13T07:31:35.294Z,-1.40
2018-12-13T07:36:40.632Z,-1.40
2018-12-13T07:41:46.166Z,-1.40
2018-12-13T07:46:53.243Z,-1.30
2018-12-13T07:51:59.014Z,-1.30
2018-12-13T07:57:04.531Z,-1.30
2018-12-13T08:02:10.363Z,-1.30
2018-12-13T08:07:15.821Z,-1.30
2018-12-13T08:12:21.295Z,-1.30
2018-12-13T08:28:33.398Z,-1.30
2018-12-13T08:33:38.787Z,-1.40
2018-12-13T08:38:44.395Z,-1.40
2018-12-13T08:43:49.718Z,-1.40
2018-12-13T08:48:55.030Z,-1.50
2018-12-13T08:54:00.904Z,-1.40
2018-12-13T08:59:06.746Z,-1.50
2018-12-13T09:04:11.982Z,-1.50
2018-12-13T09:09:17.236Z,-1.50
2018-12-13T09:14:22.400Z,-1.40
2018-12-13T09:19:27.739Z,-1.40
2018-12-13T09:24:32.958Z,-1.30
2018-12-13T09:29:38.231Z,-1.30
2018-12-13T09:34:43.811Z,-1.20
2018-12-13T09:39:49.216Z,-1.20
2018-12-13T09:44:54.909Z,-1.20
2018-12-13T09:50:00.091Z,-1.20
2018-12-13T09:55:06.263Z,-1.20
2018-12-13T10:00:13.039Z,-1.10
2018-12-13T10:05:19.336Z,-1.10
2018-12-13T10:10:25.062Z,-1.00
2018-12-13T10:15:32.227Z,-1.00
2018-12-13T10:20:37.581Z,-1.10
2018-12-13T10:25:42.879Z,-1.20
2018-12-13T10:30:48.417Z,-1.10
2018-12-13T10:35:53.779Z,-1.10
2018-12-13T10:40:59.159Z,-1.00
2018-12-13T10:46:06.358Z,-1.00
2018-12-13T10:51:11.682Z,-1.00
2018-12-13T10:56:17.106Z,-1.00
2018-12-13T11:01:27.900Z,-0.90
2018-12-13T11:06:33.512Z,-0.90
2018-12-13T11:11:38.729Z,-0.90
2018-12-13T11:16:45.349Z,-0.80
2018-12-13T11:21:50.460Z,-0.80
2018-12-13T11:27:02.284Z,-0.70
2018-12-13T11:32:07.863Z,-0.70
2018-12-13T11:37:13.219Z,-0.70
2018-12-13T11:42:18.619Z,-0.70
2018-12-13T11:47:25.052Z,-0.60
2018-12-13T11:52:30.367Z,-0.60
2018-12-13T11:57:35.832Z,-0.50
2018-12-13T12:02:41.205Z,-0.50
2018-12-13T12:07:47.035Z,-0.40
2018-12-13T12:12:52.422Z,-0.40
2018-12-13T12:17:57.855Z,-0.40
2018-12-13T12:23:03.091Z,-0.40
2018-12-13T12:28:08.538Z,-0.40
2018-12-13T12:33:13.959Z,-0.30
2018-12-13T12:38:19.671Z,-0.10
2018-12-13T12:43:25.099Z,-0.20
2018-12-13T12:48:34.208Z,-0.10
2018-12-13T12:53:41.236Z,0.00
2018-12-13T12:58:46.457Z,-0.10
2018-12-13T13:03:51.736Z,-0.20
2018-12-13T13:08:57.133Z,-0.30
2018-12-13T13:14:02.540Z,-0.40
2018-12-13T13:19:08.601Z,-0.50
2018-12-13T13:24:14.019Z,-0.50
2018-12-13T13:29:19.674Z,-0.50
2018-12-13T13:34:25.482Z,-0.60
2018-12-13T13:39:31.579Z,-0.60
2018-12-13T13:44:39.254Z,-0.60
2018-12-13T13:49:44.874Z,-0.60
2018-12-13T13:54:50.346Z,-0.60
2018-12-13T13:59:55.596Z,-0.60
2018-12-13T14:05:01.591Z,-0.60
2018-12-13T14:10:08.319Z,-0.60
2018-12-13T14:15:13.499Z,-0.60
2018-12-13T14:20:18.760Z,-0.60
2018-12-13T14:25:24.437Z,-0.60
2018-12-13T14:30:30.396Z,-0.60
2018-12-13T14:35:35.802Z,-0.70
2018-12-13T14:40:41.474Z,-0.70
2018-12-13T14:45:48.592Z,-0.70
2018-12-13T14:50:54.168Z,-0.70
2018-12-13T14:55:59.980Z,-0.80
2018-12-13T15:01:06.467Z,-0.80
2018-12-13T15:06:12.218Z,-0.80
2018-12-13T15:11:18.115Z,-0.90
2018-12-13T15:16:23.848Z,-0.80
2018-12-13T15:21:29.168Z,-0.80
2018-12-13T15:26:36.166Z,-0.80
2018-12-13T15:31:42.238Z,-0.80
2018-12-13T15:36:48.410Z,-0.80
2018-12-13T15:41:54.864Z,-0.80
2018-12-13T15:47:00.709Z,-0.90
2018-12-13T15:52:06.531Z,-0.90
2018-12-13T15:57:11.714Z,-0.90
2018-12-13T16:02:17.440Z,-0.90
2018-12-13T16:07:23.287Z,-0.90
2018-12-13T16:12:28.568Z,-0.90
2018-12-13T16:17:34.491Z,-0.90
2018-12-13T16:22:39.752Z,-1.00
2018-12-13T16:27:45.095Z,-1.00
2018-12-13T16:32:50.428Z,-1.00
2018-12-13T16:37:56.157Z,-1.00
2018-12-13T16:43:01.474Z,-1.00
2018-12-13T16:48:07.338Z,-1.00
2018-12-13T16:53:12.738Z,-1.00
2018-12-13T16:58:17.982Z,-1.00
2018-12-13T17:03:37.168Z,-1.00
2018-12-13T17:08:42.570Z,-1.00
2018-12-13T17:13:48.478Z,-1.00
2018-12-13T17:18:53.776Z,-1.00
2018-12-13T17:23:59.985Z,-1.00
2018-12-13T17:29:05.909Z,-1.10
2018-12-13T17:34:13.363Z,-1.00
2018-12-13T17:39:18.727Z,-1.00
2018-12-13T17:44:24.129Z,-1.00
2018-12-13T17:49:29.777Z,-1.10
2018-12-13T17:54:36.185Z,-1.10
2018-12-13T17:59:42.550Z,-1.10
2018-12-13T18:04:48.540Z,-1.10
2018-12-13T18:09:53.798Z,-1.10
2018-12-13T18:14:59.255Z,-1.10
2018-12-13T18:20:06.205Z,-1.10
2018-12-13T18:25:11.975Z,-1.10
2018-12-13T18:30:18.153Z,-1.10
2018-12-13T18:35:23.410Z,-1.10
2018-12-13T18:40:35.418Z,-1.10
2018-12-13T18:45:36.971Z,-1.10
2018-12-13T18:50:42.270Z,-1.10
2018-12-13T18:55:47.759Z,-1.10
2018-12-13T19:00:53.222Z,-1.10
2018-12-13T19:05:58.447Z,-1.10
2018-12-13T19:11:05.202Z,-1.10
2018-12-13T19:16:10.911Z,-1.00
2018-12-13T19:21:16.639Z,-1.10
2018-12-13T19:26:22.318Z,-1.10
2018-12-13T19:31:27.878Z,-1.10
2018-12-13T19:36:34.613Z,-1.00
2018-12-13T19:41:40.089Z,-1.10
2018-12-13T19:46:45.392Z,-1.10
2018-12-13T19:51:50.789Z,-1.10
2018-12-13T19:56:56.026Z,-1.10
2018-12-13T20:02:03.671Z,-1.00
2018-12-13T20:07:10.594Z,-1.00
2018-12-13T20:12:19.121Z,-1.10
2018-12-13T20:17:25.148Z,-1.10
2018-12-13T20:22:31.984Z,-1.10
2018-12-13T20:27:40.371Z,-1.10
2018-12-13T20:32:46.700Z,-1.20
2018-12-13T20:37:53.800Z,-1.20
2018-12-13T20:42:59.264Z,-1.20
2018-12-13T20:48:04.684Z,-1.20
2018-12-13T20:53:10.680Z,-1.20
2018-12-13T20:58:16.187Z,-1.30
2018-12-13T21:03:21.728Z,-1.30
2018-12-13T21:08:27.113Z,-1.30
2018-12-13T21:13:32.958Z,-1.30
2018-12-13T21:18:38.821Z,-1.30
2018-12-13T21:23:44.719Z,-1.30
2018-12-13T21:28:50.154Z,-1.30
2018-12-13T21:33:55.537Z,-1.30
2018-12-13T21:39:01.298Z,-1.40
2018-12-13T21:44:07.404Z,-1.40
2018-12-13T21:49:13.018Z,-1.40
2018-12-13T21:54:18.465Z,-1.40
2018-12-13T21:59:24.889Z,-1.40
2018-12-13T22:04:30.788Z,-1.40
2018-12-13T22:09:37.071Z,-1.40
2018-12-13T22:14:42.619Z,-1.40
2018-12-13T22:19:47.930Z,-1.50
2018-12-13T22:24:53.509Z,-1.40
2018-12-13T22:29:58.923Z,-1.40
2018-12-13T22:35:05.756Z,-1.40
2018-12-13T22:40:11.517Z,-1.40
2018-12-13T22:45:17.070Z,-1.40
2018-12-13T22:50:22.357Z,-1.40
2018-12-13T22:55:28.363Z,-1.40
2018-12-13T23:00:33.856Z,-1.40
2018-12-13T23:05:41.268Z,-1.30
2018-12-13T23:10:46.544Z,-1.30
2018-12-13T23:15:52.031Z,-1.40
2018-12-13T23:20:57.737Z,-1.40
2018-12-13T23:26:03.630Z,-1.40
2018-12-13T23:31:09.456Z,-1.40
2018-12-13T23:36:15.198Z,-1.40
2018-12-13T23:41:20.929Z,-1.40
2018-12-13T23:46:26.462Z,-1.40
2018-12-13T23:51:31.928Z,-1.40
2018-12-13T23:56:37.954Z,-1.40
